Central Sierra Snow Lab Weather observations

Data are for 10 minute period ending at time listed.
 Day   Time    Incoming  Reflected   Ave.   Ave.    Ave.    Vector  Max.    Ave.    Total    Snow   
  of    of      Solar     Solar      Air    Rel.    Wind    Wind    Wind   Baro.   Precip.   Depth  
Year   Day     Radiation Radiation   Temp.  Humid.  Speed   Dir.    Gust   Press.                   
2014   (PST)    Kw/m2     Kw/m2       F       %      mph     deg.    mph     mb.     in.      in.   
----------------------------------------------------------------------------------------------------
 210    6:20    0.068     999.000     57.4     59     0.0      29     0.7   799.20   13.31   61.50  
 210    6:30    0.059     999.000     57.7     61     0.0       0     0.0   799.30   13.31   61.50  
 210    6:40    0.062     999.000     57.9     62     0.8      26     2.2   799.20   13.31   61.50  
 210    6:50    0.069     999.000     58.4     60     0.6      24     1.5   799.20   13.31   61.50  
 210    7:00    0.082     999.000     59.0     62     1.6      25     2.5   799.20   13.31   61.50  
 210    7:10    0.095     999.000     59.6     62     1.0      31     2.4   799.20   13.31   61.40  
 210    7:20    0.104     999.000     60.0     65     0.1      42     0.9   799.20   13.31   61.40  
 210    7:30    0.112     999.000     60.4     65     0.2      73     1.8   799.20   13.30   61.40  
 210    7:40    0.130     999.000     60.8     66     0.0       0     0.0   799.20   13.31   61.30  
 210    7:50    0.189     999.000     61.3     65     0.0       0     0.0   799.20   13.31   61.30  
 210    8:00    0.286     999.000     62.6     62     0.7     200     1.8   799.10   13.30   61.30  
 210    8:10    0.310     999.000     63.2     59     0.5     237     1.4   799.10   13.30   61.30  
 210    8:20    0.428     999.000     65.7     48     1.2     281     3.0   799.10   13.30   61.00  
 210    8:30    0.222     999.000     66.6     47     1.4     182     2.4   799.10   13.30   61.10  
 210    8:40    0.168     999.000     65.8     49     1.4     166     3.5   799.10   13.30   61.20  
 210    8:50    0.199     999.000     66.2     45     1.0     110     1.8   799.00   13.30   61.00  
 210    9:00    0.199     999.000     66.9     44     0.9     169     2.9   798.90   13.30   61.10  
 210    9:10    0.263     999.000     67.0     46     1.1     168     2.1   799.00   13.30   61.10  
 210    9:20    0.443     999.000     68.6     43     1.5     235     4.6   799.00   13.30   61.00  
 210    9:30    0.455     999.000     69.3     40     3.0     278     6.8   799.00   13.31   61.10  
 210    9:40    0.575     999.000     69.7     38     3.4     264     7.2   799.00   13.30   64.90  
 210    9:50    0.505     999.000     70.1     36     3.6     287     8.4   799.10   13.30   66.10  
 210   10:00    0.444     999.000     70.4     38     2.5     229     6.3   799.20   13.30   66.50  
 210   10:10    0.252     999.000     69.7     36     2.2     232     5.5   799.40   13.30   65.30  
 210   10:20    0.272     999.000     68.7     39     2.1     220     6.2   799.30   13.30   61.50  
 210   10:30    0.411     999.000     69.8     37     1.5     230     6.1   799.30   13.30   62.90  
 210   10:40    0.446     999.000     70.4     36     1.8     200     4.6   799.40   13.30   63.00  
 210   10:50    0.597     999.000     70.8     34     3.0     280     7.0   799.30   13.30   67.50  
 210   11:00    0.772     999.000     71.5     32     2.4     273     6.8   799.20   13.29   82.00  
 210   11:10    0.479     999.000     71.9     32     3.4     198     6.8   799.20   13.30   101.10  
 210   11:20    0.375     999.000     72.3     31     2.8     274     6.8   799.10   13.30   94.10  
 210   11:30    0.879     999.000     73.2     28     2.2     274     6.1   799.10   13.31   97.30  
 210   11:40    0.767     999.000     74.0     26     3.5     319     8.2   799.10   13.29   103.30  
 210   11:50    0.897     999.000     74.9     24     2.6     210     7.5   799.00   13.30   106.40  
 210   12:00    0.881     999.000     75.8     25     3.0     251     7.6   798.90   13.30   104.00  
 210   12:10    0.638     999.000     75.5     25     2.9     258     8.5   798.80   13.30   107.30  
 210   12:20    1.019     999.000     75.5     24     4.1     261    10.9   798.70   13.31   104.50  
 210   12:30    0.850     999.000     75.3     24     4.3     280    10.1   798.70   13.29   106.20  
 210   12:40    0.968     999.000     76.4     23     3.6     273     9.4   798.60   13.30   106.60  
 210   12:50    0.858     999.000     76.3     23     3.2     244     7.0   798.60   13.28   107.90  
 210   13:00    0.958     999.000     76.7     23     3.9     263     9.2   798.50   13.30   107.30  
 210   13:10    0.914     999.000     77.3     23     3.0     221     7.8   798.40   13.30   106.40  
 210   13:20    0.998     999.000     77.9     22     3.2     239     6.5   798.30   13.30   107.10  
 210   13:30    0.717     999.000     77.7     23     4.2     243    10.6   798.30   13.29   105.30  
 210   13:40    0.720     999.000     77.1     24     3.3     313    10.2   798.20   13.30   107.00  
 210   13:50    0.818     999.000     77.2     23     3.5     236     9.7   798.10   13.30   107.00  
 210   14:00    0.911     999.000     77.7     23     3.2     285    11.0   798.10   13.30   107.00  
 210   14:10    0.884     999.000     78.3     24     4.1     256    12.1   798.00   13.30   107.60  
 210   14:20    0.919     999.000     77.6     24     4.2     269    10.2   798.00   13.28   107.60  
 210   14:30    0.910     999.000     78.6     23     3.6     282    10.8   797.90   13.30   107.30  
 210   14:40    0.921     999.000     77.7     24     4.3     256     9.8   797.90   13.30   107.60  
 210   14:50    0.965     999.000     78.4     23     2.5     274     8.4   797.80   13.29   105.00  
 210   15:00    0.792     999.000     78.7     23     4.1     296     9.6   797.80   13.28   104.30  
 210   15:10    0.837     999.000     77.6     24     3.6     278     7.4   797.70   13.30   105.00  
 210   15:20    0.818     999.000     78.3     24     3.5     228     6.8   797.70   13.29   106.50  
 210   15:30    0.756     999.000     78.0     24     3.3     204    12.3   797.70   13.29   105.30  
 210   15:40    0.745     999.000     78.2     24     3.6     247    12.2   797.70   13.28   97.20  
 210   15:50    0.697     999.000     78.3     24     3.2     250    10.3   797.70   13.28   89.60  
 210   16:00    0.762     999.000     77.6     24     3.9     239     8.9   797.70   13.28   86.10  
 210   16:10    0.490     999.000     77.3     24     4.4     250    10.7   797.80   13.29   88.70  
 210   16:20    0.578     999.000     76.5     26     2.8     304     7.9   797.80   13.29   99.20  
 210   16:30    0.562     999.000     76.7     25     3.9     280     8.3   797.80   13.29   94.50  
 210   16:40    0.345     999.000     76.8     26     2.9     265     9.1   797.80   13.30   97.80  
 210   16:50    0.281     999.000     76.6     26     1.9     235     6.3   797.80   13.27   105.20  
 210   17:00    0.300     999.000     76.5     26     2.4     219     9.7   797.80   13.29   105.10  
 210   17:10    0.446     999.000     76.2     27     2.2     214     6.1   797.80   13.29   103.30  
 210   17:20    0.441     999.000     76.3     26     3.8     243    11.7   797.80   13.30   104.00  
 210   17:30    0.412     999.000     76.1     26     3.3     244     7.5   797.70   13.30   103.60  
 210   17:40    0.326     999.000     75.9     27     3.3     254     8.8   797.80   13.29   103.30  
 210   17:50    0.318     999.000     75.9     27     3.8     258    10.0   797.80   13.28   106.70  
 210   18:00    0.135     999.000     75.4     27     3.0     248     9.8   797.90   13.28   107.10  
 210   18:10    0.131     999.000     74.8     28     2.6     245     6.6   797.90   13.29   81.90  
 210   18:20    0.177     999.000     73.6     28     3.3     253     7.4   798.00   13.29   123.50  
 210   18:30    0.077     999.000     72.5     29     2.6     248     7.5   798.00   13.29   100.00  
 210   18:40    0.042     999.000     71.8     30     2.5     236     6.9   798.10   13.30   103.30  
 210   18:50    0.022     999.000     70.2     31     2.5     240     6.1   798.10   13.30   104.60  
 210   19:00    0.015     999.000     69.3     32     1.8     247     4.9   798.30   13.29   81.10  
 210   19:10    0.010     999.000     68.6     32     1.7     207     5.1   798.30   13.29   62.30  
 210   19:20    0.006     999.000     67.9     34     0.8     184     2.2   798.50   13.29   61.70  
 210   19:30    0.002     999.000     67.5     33     0.6     240     2.1   798.60   13.29   61.60  
 210   19:40    0.000     999.000     67.2     33     1.2     281     4.3   798.60   13.29   61.60  
 210   19:50    0.000     999.000     67.1     33     1.3     281     3.7   798.70   13.29   61.60  
 210   20:00    0.000     999.000     66.8     33     1.5     301     3.7   798.80   13.29   61.60  
 210   20:10    0.000     999.000     66.6     32     1.0     276     2.9   798.80   13.29   61.60  
 210   20:20    0.000     999.000     66.5     33     0.4     152     2.1   798.90   13.30   61.60  
 210   20:30    0.000     999.000     66.0     36     0.6      25     2.2   798.90   13.30   61.60  
 210   20:40    0.000     999.000     63.8     48     0.8      28     2.5   799.00   13.30   61.70  
 210   20:50    0.000     999.000     62.0     55     2.0      25     3.1   799.10   13.30   61.70  
 210   21:00    0.000     999.000     61.9     52     1.4      35     2.2   799.10   13.30   61.80  
 210   21:10    0.000     999.000     62.1     54     1.0      16     2.7   799.10   13.30   61.80  
 210   21:20    0.000     999.000     61.7     60     0.1       4     1.3   799.00   13.30   61.70  
 210   21:30    0.000     999.000     61.3     59     1.4      25     2.2   799.00   13.30   61.70  
 210   21:40    0.000     999.000     61.1     58     1.9      22     2.8   799.00   13.30   61.60  
 210   21:50    0.000     999.000     60.7     56     1.9      24     2.9   798.90   13.30   61.70  
 210   22:00    0.000     999.000     60.4     58     1.7      20     3.0   798.90   13.31   61.70  
 210   22:10    0.000     999.000     59.7     58     2.2      29     3.5   798.80   13.31   61.70  
 210   22:20    0.000     999.000     59.2     57     2.1      25     5.2   798.70   13.30   61.60  
 210   22:30    0.000     999.000     58.7     57     1.5      22     2.9   798.70   13.30   61.70  
 210   22:40    0.000     999.000     58.3     57     1.3      38     3.0   798.70   13.31   61.80  
 210   22:50    0.000     999.000     58.0     57     3.2      25     4.0   798.70   13.31   61.80  
 210   23:00    0.000     999.000     57.7     59     2.2      30     3.2   798.60   13.30   61.60  
 210   23:10    0.000     999.000     57.3     60     1.6      27     3.3   798.60   13.31   61.70  
 210   23:20    0.000     999.000     57.3     59     1.9      27     4.9   798.60   13.31   61.70  
 210   23:30    0.000     999.000     57.2     59     1.4      41     3.8   798.60   13.31   61.70  
 210   23:40    0.000     999.000     56.9     60     1.5      38     3.2   798.60   13.31   61.70  
 210   23:50    0.000     999.000     56.8     60     1.3      40     2.5   798.50   13.31   61.70  
 211    0:00    0.000     999.000     56.9     59     1.2      65     1.7   798.40   13.31   61.70  
 211    0:10    0.000     999.000     57.1     57     1.0      28     2.8   798.50   13.31   61.70  
 211    0:20    0.000     999.000     57.4     57     2.0      22     2.8   798.40   13.30   61.70  
 211    0:30    0.000     999.000     57.8     56     1.9      21     2.9   798.40   13.31   61.80  
 211    0:40    0.000     999.000     58.2     56     2.3      24     3.1   798.30   13.31   61.70  
 211    0:50    0.000     999.000     58.5     54     1.7      28     2.9   798.20   13.31   61.70  
 211    1:00    0.000     999.000     58.6     54     0.6     105     1.9   798.20   13.31   61.70  
 211    1:10    0.000     999.000     58.3     55     1.1      31     2.4   798.30   13.31   61.70  
 211    1:20    0.000     999.000     58.5     53     0.2      75     1.5   798.20   13.31   61.80  
 211    1:30    0.000     999.000     58.6     52     0.4      52     1.5   798.20   13.31   61.80  
 211    1:40    0.000     999.000     58.8     51     0.7      43     1.8   798.20   13.30   61.70  
 211    1:50    0.000     999.000     58.9     52     1.3      20     2.2   798.30   13.31   61.70  
 211    2:00    0.000     999.000     59.4     51     1.7      21     3.1   798.30   13.31   61.60  
 211    2:10    0.000     999.000     59.4     51     1.7      29     3.2   798.30   13.31   61.60  
 211    2:20    0.000     999.000     59.1     52     1.8      19     3.3   798.30   13.31   61.70  
 211    2:30    0.000     999.000     58.4     54     1.8      43     3.4   798.30   13.31   61.70  
 211    2:40    0.000     999.000     58.1     54     1.6      37     4.1   798.30   13.31   61.80  
 211    2:50    0.000     999.000     57.8     55     0.1      31     1.2   798.20   13.31   61.70  
 211    3:00    0.000     999.000     57.2     56     0.9      14     1.8   798.10   13.31   61.70  
 211    3:10    0.000     999.000     56.6     58     1.7      27     2.4   798.10   13.31   61.70  
 211    3:20    0.000     999.000     56.3     58     1.2      30     2.3   798.10   13.31   61.80  
 211    3:30    0.000     999.000     56.2     57     1.8      31     3.2   798.00   13.31   61.70  
 211    3:40    0.000     999.000     56.0     58     0.0      30     0.7   798.00   13.31   61.70  
 211    3:50    0.000     999.000     55.5     59     1.0      24     2.2   798.00   13.31   61.70  
 211    4:00    0.000     999.000     55.0     59     0.4      31     1.6   797.90   13.31   61.80  
 211    4:10    0.000     999.000     54.7     60     2.0      23     2.6   797.90   13.31   61.80  
 211    4:20    0.000     999.000     54.4     61     1.8      28     2.9   797.90   13.31   61.60  
 211    4:30    0.000     999.000     54.3     61     1.2      53     2.0   797.80   13.31   61.70  
 211    4:40    0.000     999.000     54.5     60     1.2      54     2.5   797.80   13.31   61.80  
 211    4:50    0.000     999.000     54.7     59     0.9      48     1.7   797.80   13.31   61.90  
 211    5:00    0.001     999.000     54.9     58     1.5      76     2.4   797.90   13.31   62.00  
 211    5:10    0.003     999.000     55.2     57     1.0      90     2.1   798.00   13.31   61.90  
 211    5:20    0.006     999.000     55.1     57     1.3      43     2.9   798.00   13.31   61.80  
 211    5:30    0.009     999.000     55.0     58     1.1      33     2.8   798.10   13.31   61.80  
 211    5:40    0.012     999.000     54.9     59     1.2      48     2.5   798.20   13.31   61.80  
 211    5:50    0.015     999.000     55.0     59     1.1      46     2.7   798.20   13.31   61.80  
 211    6:00    0.018     999.000     55.0     61     1.5      62     2.7   798.20   13.31   61.80  
 211    6:10    0.021     999.000     55.3     60     0.8      61     1.8   798.20   13.31   61.80  

Return to Central Sierra Snow Lab graphs page.


Western Regional Climate Center,wrcc@dri.edu